createdAt,value
2017-11-13T00:00:05.425Z,84.03
2017-11-13T00:02:33.212Z,82.15
2017-11-13T00:05:01.072Z,82.32
2017-11-13T00:07:28.921Z,77.07
2017-11-13T00:09:56.787Z,71.60
2017-11-13T00:12:24.644Z,79.68
2017-11-13T00:14:59.149Z,76.82
2017-11-13T00:17:27.035Z,63.17
2017-11-13T00:19:54.879Z,88.65
2017-11-13T00:22:27.646Z,70.80
2017-11-13T00:24:55.494Z,67.72
2017-11-13T00:27:23.363Z,67.90
2017-11-13T00:29:51.202Z,63.75
2017-11-13T00:32:19.025Z,63.45
2017-11-13T00:34:46.849Z,62.22
2017-11-13T00:37:14.729Z,52.00
2017-11-13T00:39:42.584Z,49.20
2017-11-13T00:42:10.414Z,54.50
2017-11-13T00:44:38.382Z,43.70
2017-11-13T00:47:06.236Z,45.97
2017-11-13T00:49:34.070Z,50.92
2017-11-13T00:52:01.919Z,58.60
2017-11-13T00:54:43.014Z,53.40
2017-11-13T00:57:10.860Z,55.33
2017-11-13T00:59:38.692Z,57.58
2017-11-13T01:02:06.530Z,64.12
2017-11-13T01:04:34.363Z,52.58
2017-11-13T01:07:02.199Z,82.93
2017-11-13T01:09:30.029Z,66.35
2017-11-13T01:11:57.881Z,95.25
2017-11-13T01:14:25.706Z,50.42
2017-11-13T01:16:53.569Z,73.72
2017-11-13T01:19:21.420Z,81.22
2017-11-13T01:21:49.267Z,76.80
2017-11-13T01:27:06.584Z,73.60
2017-11-13T01:29:34.377Z,65.15
2017-11-13T01:32:02.219Z,57.58
2017-11-13T01:34:30.069Z,59.67
2017-11-13T01:36:57.896Z,57.17
2017-11-13T01:39:25.734Z,55.10
2017-11-13T01:41:53.605Z,68.15
2017-11-13T01:44:21.450Z,55.28
2017-11-13T01:46:49.299Z,65.68
2017-11-13T01:49:17.140Z,72.45
2017-11-13T01:51:45.011Z,79.25
2017-11-13T01:54:19.569Z,66.03
2017-11-13T01:56:47.462Z,64.07
2017-11-13T01:59:15.300Z,67.85
2017-11-13T02:01:43.205Z,66.53
2017-11-13T02:04:11.077Z,68.18
2017-11-13T02:06:38.922Z,73.50
2017-11-13T02:09:06.764Z,71.37
2017-11-13T02:11:34.658Z,73.30
2017-11-13T02:14:02.595Z,71.47
2017-11-13T02:16:30.465Z,74.80
2017-11-13T02:18:58.318Z,73.62
2017-11-13T02:21:26.158Z,69.35
2017-11-13T02:23:54.034Z,67.93
2017-11-13T02:26:21.864Z,63.87
2017-11-13T02:28:49.724Z,68.40
2017-11-13T02:31:17.558Z,58.90
2017-11-13T02:33:45.398Z,60.08
2017-11-13T02:36:13.228Z,56.63
2017-11-13T02:38:41.080Z,48.85
2017-11-13T02:41:08.932Z,55.58
2017-11-13T02:43:36.781Z,51.63
2017-11-13T02:46:04.618Z,45.95
2017-11-13T02:48:32.455Z,46.20
2017-11-13T02:51:00.293Z,44.15
2017-11-13T02:53:28.262Z,49.33
2017-11-13T02:55:56.121Z,47.45
2017-11-13T02:58:24.005Z,47.25
2017-11-13T03:00:51.828Z,49.53
2017-11-13T03:03:19.663Z,43.50
2017-11-13T03:05:47.485Z,39.83
2017-11-13T03:08:15.324Z,43.80
2017-11-13T03:10:43.163Z,46.42
2017-11-13T03:13:11.022Z,48.05
2017-11-13T03:15:38.891Z,46.92
2017-11-13T03:18:06.771Z,42.13
2017-11-13T03:20:34.614Z,42.05
2017-11-13T03:23:02.450Z,38.42
2017-11-13T03:25:30.835Z,41.25
2017-11-13T03:27:58.670Z,38.97
2017-11-13T03:30:26.506Z,43.10
2017-11-13T03:32:54.339Z,40.90
2017-11-13T03:35:28.596Z,38.40
2017-11-13T03:37:56.430Z,46.05
2017-11-13T03:40:24.267Z,41.17
2017-11-13T03:42:52.108Z,46.28
2017-11-13T03:45:26.373Z,48.55
2017-11-13T03:47:54.221Z,36.78
2017-11-13T03:50:22.062Z,44.47
2017-11-13T03:52:49.873Z,36.05
2017-11-13T03:55:17.714Z,34.28
2017-11-13T03:57:45.578Z,40.25
2017-11-13T04:00:14.166Z,38.08
2017-11-13T04:02:41.987Z,40.50
2017-11-13T04:05:09.796Z,30.80
2017-11-13T04:07:37.602Z,34.67
2017-11-13T04:10:05.441Z,38.03
2017-11-13T04:12:33.263Z,32.75
2017-11-13T04:15:01.081Z,40.75
2017-11-13T04:17:28.906Z,40.05
2017-11-13T04:19:56.742Z,36.72
2017-11-13T04:22:24.569Z,37.50
2017-11-13T04:24:52.435Z,39.58
2017-11-13T04:27:20.266Z,33.85
2017-11-13T04:29:48.103Z,45.22
2017-11-13T04:32:15.932Z,40.05
2017-11-13T04:34:43.754Z,36.78
2017-11-13T04:37:11.589Z,40.97
2017-11-13T04:39:39.426Z,43.92
2017-11-13T04:42:07.260Z,36.08
2017-11-13T04:44:35.101Z,32.33
2017-11-13T04:47:02.932Z,35.17
2017-11-13T04:49:30.771Z,32.15
2017-11-13T04:51:58.607Z,28.12
2017-11-13T04:54:26.458Z,27.15
2017-11-13T04:56:54.285Z,40.90
2017-11-13T04:59:22.087Z,30.70
2017-11-13T05:01:49.896Z,31.35
2017-11-13T05:04:19.366Z,30.70
2017-11-13T05:06:47.795Z,33.13
2017-11-13T05:09:16.323Z,35.05
2017-11-13T05:11:44.339Z,29.02
2017-11-13T05:14:12.187Z,31.87
2017-11-13T05:16:40.041Z,43.90
2017-11-13T05:19:07.873Z,25.75
2017-11-13T05:21:35.735Z,33.60
2017-11-13T05:24:03.626Z,27.40
2017-11-13T05:26:31.501Z,26.48
2017-11-13T05:28:59.382Z,27.13
2017-11-13T05:31:27.217Z,39.03
2017-11-13T05:33:55.077Z,32.90
2017-11-13T05:36:22.923Z,42.50
2017-11-13T05:38:50.808Z,30.48
2017-11-13T05:41:18.726Z,28.48
2017-11-13T05:43:46.598Z,32.65
2017-11-13T05:46:14.481Z,32.55
2017-11-13T05:48:42.397Z,26.75
2017-11-13T05:51:10.221Z,28.45
2017-11-13T05:53:38.057Z,26.70
2017-11-13T05:56:05.901Z,30.98
2017-11-13T05:58:33.765Z,32.92
2017-11-13T06:01:01.718Z,29.48
2017-11-13T06:03:29.621Z,34.47
2017-11-13T06:05:57.449Z,27.25
2017-11-13T06:08:25.295Z,34.97
2017-11-13T06:10:53.142Z,30.42
2017-11-13T06:13:21.000Z,35.63
2017-11-13T06:15:48.910Z,28.15
2017-11-13T06:18:16.764Z,44.78
2017-11-13T06:20:44.665Z,33.22
2017-11-13T06:23:12.509Z,38.97
2017-11-13T06:25:40.381Z,25.12
2017-11-13T06:28:08.234Z,24.60
2017-11-13T06:30:36.106Z,39.78
2017-11-13T06:33:03.948Z,21.25
2017-11-13T06:35:31.785Z,35.60
2017-11-13T06:37:59.617Z,33.25
2017-11-13T06:40:27.450Z,31.83
2017-11-13T06:42:55.294Z,26.85
2017-11-13T06:45:23.127Z,28.67
2017-11-13T06:47:50.949Z,33.47
2017-11-13T06:50:18.787Z,24.73
2017-11-13T06:52:46.632Z,26.60
2017-11-13T06:55:20.624Z,27.52
2017-11-13T06:57:48.430Z,25.05
2017-11-13T07:00:16.263Z,28.75
2017-11-13T07:02:44.119Z,24.10
2017-11-13T07:05:11.970Z,29.52
2017-11-13T07:07:39.790Z,31.70
2017-11-13T07:10:07.678Z,22.40
2017-11-13T07:12:37.552Z,31.77
2017-11-13T07:15:05.426Z,23.90
2017-11-13T07:21:05.565Z,24.15
2017-11-13T07:23:33.399Z,28.08
2017-11-13T07:26:01.301Z,27.13
2017-11-13T07:28:29.252Z,27.77
2017-11-13T07:30:57.187Z,25.25
2017-11-13T07:33:25.153Z,27.73
2017-11-13T07:35:52.994Z,26.65
2017-11-13T07:38:20.841Z,24.77
2017-11-13T07:40:49.482Z,22.92
2017-11-13T07:46:22.527Z,25.77
2017-11-13T07:48:50.347Z,17.67
2017-11-13T07:51:18.218Z,20.75
2017-11-13T07:53:46.043Z,19.08
2017-11-13T07:56:13.878Z,16.48
2017-11-13T07:58:41.729Z,19.95
2017-11-13T08:01:09.579Z,20.70
2017-11-13T08:03:37.414Z,24.67
2017-11-13T08:06:05.271Z,17.05
2017-11-13T08:08:33.119Z,19.30
2017-11-13T08:11:00.959Z,16.95
2017-11-13T08:13:28.972Z,19.10
2017-11-13T08:15:56.853Z,29.12
2017-11-13T08:18:24.735Z,19.20
2017-11-13T08:20:52.565Z,16.73
2017-11-13T08:23:20.429Z,21.30
2017-11-13T08:25:48.295Z,23.05
2017-11-13T08:28:16.159Z,20.35
2017-11-13T08:30:44.005Z,20.70
2017-11-13T08:33:11.882Z,18.23
2017-11-13T08:35:39.753Z,24.33
2017-11-13T08:38:07.585Z,14.05
2017-11-13T08:40:35.452Z,13.38
2017-11-13T08:43:03.281Z,18.60
2017-11-13T08:45:31.133Z,14.40
2017-11-13T08:47:58.984Z,19.12
2017-11-13T08:50:26.830Z,17.85
2017-11-13T08:52:54.774Z,12.15
2017-11-13T08:55:22.626Z,10.48
2017-11-13T08:57:50.530Z,12.30
2017-11-13T09:00:18.369Z,9.10
2017-11-13T09:02:46.204Z,10.97
2017-11-13T09:05:14.046Z,13.30
2017-11-13T09:07:41.893Z,9.43
2017-11-13T09:10:09.730Z,12.10
2017-11-13T09:12:37.631Z,5.70
2017-11-13T09:15:05.514Z,9.97
2017-11-13T09:17:33.480Z,8.93
2017-11-13T09:20:01.426Z,7.83
2017-11-13T09:22:29.383Z,8.20
2017-11-13T09:24:57.250Z,7.70
2017-11-13T09:27:25.109Z,6.50
2017-11-13T09:29:52.969Z,6.70
2017-11-13T09:32:20.815Z,7.60
2017-11-13T09:34:48.671Z,4.97
2017-11-13T09:37:16.683Z,8.00
2017-11-13T09:39:44.586Z,5.30
2017-11-13T09:42:12.470Z,11.70
2017-11-13T09:44:40.318Z,5.77
2017-11-13T09:47:08.166Z,6.70
2017-11-13T09:49:36.009Z,6.90
2017-11-13T09:52:03.987Z,4.80
2017-11-13T09:54:31.906Z,10.03
2017-11-13T09:57:08.579Z,8.50
2017-11-13T09:59:37.946Z,5.60
2017-11-13T10:05:01.141Z,6.90
2017-11-13T10:07:35.244Z,7.17
2017-11-13T10:10:03.125Z,8.00
2017-11-13T10:12:30.971Z,5.33
2017-11-13T10:15:06.063Z,4.33
2017-11-13T10:17:34.478Z,7.80
2017-11-13T10:20:02.625Z,7.80
2017-11-13T10:56:15.241Z,5.77
2017-11-13T10:58:43.212Z,5.10
2017-11-13T11:01:11.353Z,2.77
2017-11-13T11:03:39.283Z,6.80
2017-11-13T11:06:07.181Z,2.27
2017-11-13T11:08:35.107Z,3.83
2017-11-13T11:11:02.983Z,11.83
2017-11-13T11:13:33.716Z,4.23
2017-11-13T11:16:01.555Z,4.90
2017-11-13T11:18:32.362Z,4.97
2017-11-13T11:21:15.178Z,4.10
2017-11-13T11:23:43.045Z,2.90
2017-11-13T11:26:14.789Z,9.30
2017-11-13T11:28:45.477Z,7.23
2017-11-13T11:31:14.170Z,2.03
2017-11-13T11:33:58.879Z,4.73
2017-11-13T11:36:43.504Z,3.40
2017-11-13T11:39:11.368Z,7.40
2017-11-13T11:41:39.198Z,4.13
2017-11-13T11:44:07.828Z,2.57
2017-11-13T11:46:35.661Z,4.53
2017-11-13T11:49:05.196Z,2.20
2017-11-13T11:51:33.094Z,3.57
2017-11-13T11:54:15.930Z,2.40
2017-11-13T11:56:45.591Z,3.77
2017-11-13T11:59:13.430Z,3.43
2017-11-13T12:01:41.300Z,4.83
2017-11-13T12:04:09.150Z,5.03
2017-11-13T12:06:36.996Z,2.93
2017-11-13T12:09:04.867Z,6.53
2017-11-13T12:11:32.728Z,2.10
2017-11-13T12:14:00.570Z,2.50
2017-11-13T12:16:28.409Z,11.57
2017-11-13T12:18:56.254Z,3.07
2017-11-13T12:21:24.104Z,3.33
2017-11-13T12:23:51.931Z,2.00
2017-11-13T12:26:19.764Z,4.70
2017-11-13T12:28:47.559Z,1.60
2017-11-13T12:31:15.385Z,2.93
2017-11-13T12:33:43.202Z,3.20
2017-11-13T12:36:11.045Z,4.23
2017-11-13T12:38:38.902Z,7.27
2017-11-13T12:41:06.773Z,4.30
2017-11-13T12:43:34.598Z,3.43
2017-11-13T12:46:02.418Z,5.77
2017-11-13T12:48:30.238Z,3.73
2017-11-13T12:50:58.094Z,4.30
2017-11-13T12:53:25.952Z,4.47
2017-11-13T12:55:53.808Z,2.30
2017-11-13T12:58:21.675Z,10.30
2017-11-13T13:00:49.549Z,5.33
2017-11-13T13:03:17.409Z,5.90
2017-11-13T13:05:45.280Z,5.10
2017-11-13T13:08:13.157Z,9.80
2017-11-13T13:10:40.989Z,3.50
2017-11-13T13:13:08.842Z,7.77
2017-11-13T13:15:36.732Z,5.70
2017-11-13T13:18:04.576Z,10.53
2017-11-13T13:20:32.406Z,4.07
2017-11-13T13:23:00.271Z,3.70
2017-11-13T13:25:28.118Z,7.50
2017-11-13T13:27:55.975Z,10.70
2017-11-13T13:30:23.811Z,2.60
2017-11-13T13:32:53.649Z,4.20
2017-11-13T13:35:21.517Z,3.33
2017-11-13T13:37:49.341Z,6.50
2017-11-13T13:40:17.181Z,5.03
2017-11-13T13:42:45.025Z,8.53
2017-11-13T13:45:12.876Z,3.60
2017-11-13T13:47:40.742Z,7.73
2017-11-13T13:50:08.588Z,5.60
2017-11-13T13:52:36.431Z,3.70
2017-11-13T13:55:04.295Z,2.60
2017-11-13T13:57:32.166Z,3.87
2017-11-13T13:59:59.997Z,3.60
2017-11-13T14:02:27.843Z,2.03
2017-11-13T14:04:55.702Z,6.70
2017-11-13T14:07:23.547Z,2.10
2017-11-13T14:09:51.391Z,4.33
2017-11-13T14:12:19.258Z,10.40
2017-11-13T14:14:47.101Z,7.70
2017-11-13T14:17:14.926Z,7.00
2017-11-13T14:19:42.760Z,4.20
2017-11-13T14:22:10.577Z,4.40
2017-11-13T14:24:38.412Z,5.60
2017-11-13T14:27:06.255Z,3.60
2017-11-13T14:29:34.127Z,4.20
2017-11-13T14:32:02.014Z,10.20
2017-11-13T14:34:29.878Z,14.30
2017-11-13T14:36:57.727Z,4.37
2017-11-13T14:39:25.546Z,4.40
2017-11-13T14:41:53.402Z,13.23
2017-11-13T14:44:21.226Z,5.37
2017-11-13T14:46:49.062Z,7.20
2017-11-13T14:49:16.880Z,6.90
2017-11-13T14:51:44.706Z,8.80
2017-11-13T14:54:12.534Z,3.73
2017-11-13T14:56:40.378Z,6.63
2017-11-13T14:59:08.210Z,5.70
2017-11-13T15:01:36.077Z,5.03
2017-11-13T15:04:04.019Z,3.30
2017-11-13T15:06:31.858Z,9.37
2017-11-13T15:08:59.692Z,5.17
2017-11-13T15:11:27.537Z,14.40
2017-11-13T15:13:55.359Z,6.03
2017-11-13T15:16:23.197Z,6.40
2017-11-13T15:18:51.031Z,7.57
2017-11-13T15:21:18.875Z,11.40
2017-11-13T15:23:46.724Z,4.70
2017-11-13T15:26:14.561Z,4.83
2017-11-13T15:28:42.398Z,13.80
2017-11-13T15:31:10.261Z,11.43
2017-11-13T15:33:38.110Z,12.10
2017-11-13T15:36:05.949Z,6.63
2017-11-13T15:38:34.314Z,9.50
2017-11-13T15:41:06.088Z,10.70
2017-11-13T15:43:33.960Z,8.90
2017-11-13T15:46:01.782Z,14.30
2017-11-13T15:48:29.623Z,7.67
2017-11-13T15:50:57.462Z,5.97
2017-11-13T15:53:25.330Z,6.97
2017-11-13T15:55:53.160Z,8.10
2017-11-13T15:58:21.007Z,18.80
2017-11-13T16:00:48.825Z,5.87
2017-11-13T16:03:16.662Z,8.67
2017-11-13T16:05:44.506Z,5.43
2017-11-13T16:08:12.350Z,7.73
2017-11-13T16:10:40.202Z,9.37
2017-11-13T16:13:08.015Z,9.60
2017-11-13T16:15:35.855Z,8.43
2017-11-13T16:18:03.675Z,6.57
2017-11-13T16:20:33.409Z,3.73
2017-11-13T16:23:01.250Z,4.20
2017-11-13T16:25:29.090Z,3.77
2017-11-13T16:28:03.076Z,13.87
2017-11-13T16:30:34.652Z,10.03
2017-11-13T16:33:02.505Z,9.77
2017-11-13T16:35:30.352Z,6.80
2017-11-13T16:37:58.182Z,7.17
2017-11-13T16:40:26.019Z,12.67
2017-11-13T16:42:53.942Z,5.53
2017-11-13T16:45:21.775Z,5.93
2017-11-13T16:47:49.694Z,8.50
2017-11-13T16:50:17.551Z,7.87
2017-11-13T16:52:45.501Z,7.53
2017-11-13T16:55:13.399Z,8.00
2017-11-13T16:57:41.282Z,8.07
2017-11-13T17:00:09.203Z,13.03
2017-11-13T17:02:37.105Z,4.70
2017-11-13T17:05:05.464Z,5.27
2017-11-13T17:07:34.448Z,7.43
2017-11-13T17:10:02.549Z,5.00
2017-11-13T17:12:30.454Z,10.70
2017-11-13T17:14:58.370Z,8.20
2017-11-13T17:17:26.231Z,7.00
2017-11-13T17:19:54.086Z,6.20
2017-11-13T17:22:21.945Z,6.53
2017-11-13T17:24:50.230Z,7.13
2017-11-13T17:27:18.673Z,5.10
2017-11-13T17:29:47.102Z,6.33
2017-11-13T17:32:16.284Z,5.70
2017-11-13T17:34:44.718Z,11.03
2017-11-13T17:37:13.060Z,11.03
2017-11-13T17:39:41.066Z,14.27
2017-11-13T17:42:08.926Z,8.43
2017-11-13T17:44:36.759Z,7.17
2017-11-13T17:47:04.614Z,5.50
2017-11-13T17:49:33.578Z,11.27
2017-11-13T17:52:01.431Z,5.93
2017-11-13T17:54:29.282Z,8.23
2017-11-13T17:56:57.239Z,8.60
2017-11-13T17:59:25.821Z,11.57
2017-11-13T18:01:53.681Z,8.20
2017-11-13T18:04:21.559Z,15.07
2017-11-13T18:06:49.425Z,8.43
2017-11-13T18:09:17.252Z,10.87
2017-11-13T18:11:47.102Z,22.63
2017-11-13T18:14:14.976Z,13.80
2017-11-13T18:16:42.857Z,9.27
2017-11-13T18:19:10.734Z,10.30
2017-11-13T18:21:38.664Z,12.43
2017-11-13T18:24:06.517Z,8.60
2017-11-13T18:26:34.365Z,12.33
2017-11-13T18:29:02.210Z,8.50
2017-11-13T18:31:30.067Z,8.27
2017-11-13T18:33:57.930Z,8.40
2017-11-13T18:36:25.794Z,8.20
2017-11-13T18:38:53.658Z,15.30
2017-11-13T18:41:21.581Z,11.68
2017-11-13T18:43:49.463Z,6.90
2017-11-13T18:46:17.330Z,11.23
2017-11-13T18:48:45.201Z,14.20
2017-11-13T18:51:13.134Z,14.23
2017-11-13T18:53:43.052Z,12.10
2017-11-13T18:56:10.946Z,11.15
2017-11-13T18:58:38.822Z,11.88
2017-11-13T19:01:06.681Z,14.90
2017-11-13T19:03:34.556Z,11.07
2017-11-13T19:06:02.394Z,10.35
2017-11-13T19:08:30.243Z,11.77
2017-11-13T19:10:58.074Z,24.07
2017-11-13T19:13:25.974Z,10.35
2017-11-13T19:15:53.839Z,11.07
2017-11-13T19:18:21.705Z,14.00
2017-11-13T19:20:49.543Z,13.57
2017-11-13T19:23:17.395Z,18.70
2017-11-13T19:25:45.297Z,20.10
2017-11-13T19:28:13.170Z,10.77
2017-11-13T19:30:41.076Z,13.15
2017-11-13T19:33:08.934Z,15.02
2017-11-13T19:35:36.782Z,16.83
2017-11-13T19:38:04.639Z,14.10
2017-11-13T19:40:32.503Z,10.85
2017-11-13T19:43:00.413Z,15.18
2017-11-13T19:45:28.273Z,14.70
2017-11-13T19:47:56.110Z,15.93
2017-11-13T19:50:23.943Z,12.25
2017-11-13T19:52:51.773Z,14.15
2017-11-13T19:55:19.611Z,23.80
2017-11-13T19:57:47.442Z,18.35
2017-11-13T20:00:15.315Z,20.27
2017-11-13T20:02:43.154Z,13.68
2017-11-13T20:05:10.993Z,19.70
2017-11-13T20:07:38.822Z,15.90
2017-11-13T20:10:06.669Z,14.60
2017-11-13T20:12:34.510Z,16.05
2017-11-13T20:15:02.330Z,26.52
2017-11-13T20:17:30.142Z,12.50
2017-11-13T20:19:57.975Z,12.98
2017-11-13T20:22:25.798Z,21.15
2017-11-13T20:24:53.621Z,13.23
2017-11-13T20:27:21.435Z,14.02
2017-11-13T20:29:49.270Z,19.40
2017-11-13T20:32:17.089Z,18.98
2017-11-13T20:34:44.947Z,15.93
2017-11-13T20:37:12.793Z,17.12
2017-11-13T20:39:40.603Z,21.25
2017-11-13T20:42:08.468Z,21.40
2017-11-13T20:44:36.308Z,17.42
2017-11-13T20:47:04.181Z,21.37
2017-11-13T20:49:32.037Z,32.45
2017-11-13T20:51:59.965Z,26.02
2017-11-13T20:54:27.807Z,14.40
2017-11-13T20:56:55.673Z,17.90
2017-11-13T20:59:23.530Z,18.98
2017-11-13T21:01:51.369Z,22.85
2017-11-13T21:04:19.217Z,19.67
2017-11-13T21:06:47.114Z,20.85
2017-11-13T21:09:14.965Z,20.15
2017-11-13T21:11:42.799Z,27.33
2017-11-13T21:14:10.647Z,25.35
2017-11-13T21:16:38.515Z,27.55
2017-11-13T21:19:06.353Z,23.05
2017-11-13T21:21:34.204Z,34.78
2017-11-13T21:24:02.075Z,28.30
2017-11-13T21:26:29.941Z,21.45
2017-11-13T21:28:57.797Z,20.95
2017-11-13T21:31:25.621Z,32.42
2017-11-13T21:33:53.466Z,27.55
2017-11-13T21:36:21.292Z,30.92
2017-11-13T21:38:49.114Z,24.77
2017-11-13T21:41:16.916Z,28.20
2017-11-13T21:43:44.774Z,27.60
2017-11-13T21:46:12.615Z,26.98
2017-11-13T21:48:40.449Z,29.23
2017-11-13T21:51:08.313Z,29.67
2017-11-13T21:53:36.188Z,20.48
2017-11-13T21:56:04.016Z,29.98
2017-11-13T21:58:31.966Z,27.27
2017-11-13T22:00:59.806Z,29.98
2017-11-13T22:03:27.615Z,21.98
2017-11-13T22:05:55.784Z,23.17
2017-11-13T22:08:23.605Z,26.20
2017-11-13T22:10:51.430Z,26.42
2017-11-13T22:13:19.246Z,22.95
2017-11-13T22:15:47.086Z,30.02
2017-11-13T22:18:14.914Z,19.33
2017-11-13T22:20:42.767Z,17.65
2017-11-13T22:23:10.612Z,22.17
2017-11-13T22:25:38.501Z,24.05
2017-11-13T22:28:07.009Z,20.25
2017-11-13T22:30:34.864Z,30.67
2017-11-13T22:33:02.681Z,25.52
2017-11-13T22:35:30.499Z,23.17
2017-11-13T22:37:58.333Z,28.00
2017-11-13T22:40:26.135Z,30.27
2017-11-13T22:42:53.976Z,26.75
2017-11-13T22:45:21.815Z,21.20
2017-11-13T22:47:49.638Z,24.50
2017-11-13T22:50:17.481Z,26.10
2017-11-13T22:52:45.330Z,26.50
2017-11-13T22:55:13.147Z,22.37
2017-11-13T22:57:40.978Z,21.40
2017-11-13T23:00:08.798Z,26.52
2017-11-13T23:02:36.618Z,28.00
2017-11-13T23:05:04.426Z,36.67
2017-11-13T23:07:32.259Z,23.23
2017-11-13T23:10:00.095Z,29.00
2017-11-13T23:12:27.926Z,24.50
2017-11-13T23:14:55.775Z,29.17
2017-11-13T23:17:23.589Z,29.37
2017-11-13T23:19:51.517Z,17.65
2017-11-13T23:22:19.343Z,20.45
2017-11-13T23:24:47.157Z,19.40
2017-11-13T23:27:14.984Z,21.62
2017-11-13T23:29:42.802Z,18.87
2017-11-13T23:32:10.621Z,19.85
2017-11-13T23:34:38.433Z,16.83
2017-11-13T23:37:06.264Z,22.13
2017-11-13T23:39:34.074Z,16.12
2017-11-13T23:42:01.933Z,15.02
2017-11-13T23:44:29.768Z,22.02
2017-11-13T23:46:57.650Z,16.73
2017-11-13T23:49:25.459Z,14.85
2017-11-13T23:51:53.294Z,20.77
2017-11-13T23:54:27.105Z,9.98
2017-11-13T23:56:54.900Z,12.13
2017-11-13T23:59:22.766Z,16.50
